Superfast Baleares — EBXD — position and weather

sailwx.info

Track history (hours):
 
Tides and Currents Weather Stations Pressure Air Temp Water Temp Dewpoint Dewpoint Depression Visibility Wind Speed Wind Dir Waves Ship Positions

Superfast Baleares

Last reported at 2016-Jul-29 04:33 UTC. Time now 2016-Jul-29 05:59 UTC.
Position N 55°28' E 008°26'.

Length 210 m; draft 6.5 m.

Type: Ship (hazmat cat A). MMSI: 225405000.

Date/timePositionNaut miles runAvg speedWind from/ knotsBaromVisibWave heightAir tempDewpointWater temp
2016-Jul-29 04:33N 55°28' E 008°26'0 0.0
2016-Jul-29 03:33N 55°28' E 008°26'0 0.0
2016-Jul-29 02:33N 55°28' E 008°26'0 0.0
2016-Jul-29 01:33N 55°28' E 008°26'0 0.0
2016-Jul-29 00:33N 55°28' E 008°26'0 0.0
2016-Jul-28 23:33N 55°28' E 008°26'0 0.0
2016-Jul-28 22:33N 55°28' E 008°26'0 0.0
2016-Jul-28 21:33N 55°28' E 008°26'0 0.0
2016-Jul-28 20:33N 55°28' E 008°26'0 0.0
2016-Jul-28 19:33N 55°28' E 008°26'0 0.0
2016-Jul-28 18:32N 55°28' E 008°26'0 0.0
2016-Jul-28 17:33N 55°28' E 008°26'0 0.0
2016-Jul-28 16:33N 55°28' E 008°26'0 0.0
2016-Jul-28 15:33N 55°28' E 008°26'0 0.0
2016-Jul-28 14:33N 55°28' E 008°26'0 0.0
2016-Jul-28 13:33N 55°28' E 008°26'1 1.2
2016-Jul-28 12:33N 55°28' E 008°25'1211.7
2016-Jul-28 11:33N 55°24' E 008°05'29520.9
2016-Jul-27 21:28N 53°33' E 000°16'1314.6
2016-Jul-27 20:33N 53°37' W 000°06'4 3.8
2016-Jul-27 19:33N 53°38' W 000°12'0 0.0
2016-Jul-27 18:33N 53°38' W 000°12'0 0.0
2016-Jul-27 17:33N 53°38' W 000°12'0 0.0
2016-Jul-27 16:33N 53°38' W 000°12'0 0.0
2016-Jul-27 15:33N 53°38' W 000°12'0 0.0
2016-Jul-27 14:33N 53°38' W 000°12'0 0.0
2016-Jul-27 13:33N 53°38' W 000°12'1 1.0
2016-Jul-27 12:33N 53°38' W 000°10'1312.7
2016-Jul-27 11:33N 53°33' E 000°09'25818.4
2016-Jul-26 21:34N 55°20' E 006°53'2320.6
2016-Jul-26 20:27N 55°22' E 007°33'1920.7
2016-Jul-26 19:33N 55°24' E 008°05'1212.3
2016-Jul-26 18:33N 55°27' E 008°26'0 0.2
2016-Jul-26 17:32N 55°28' E 008°26'0 0.0
2016-Jul-26 16:33N 55°28' E 008°26'0 0.0
2016-Jul-26 15:33N 55°28' E 008°26'0 0.0
2016-Jul-26 14:33N 55°28' E 008°26'0 0.0
2016-Jul-26 13:33N 55°28' E 008°26'1 0.6
2016-Jul-26 12:33N 55°28' E 008°25'1211.7
2016-Jul-26 11:34N 55°24' E 008°06'1616.2
2016-Jul-26 10:34N 55°23' E 007°37'1615.9
2016-Jul-26 09:34N 55°21' E 007°10'26220.1
2016-Jul-25 20:32N 53°35' E 000°18'1211.8
2016-Jul-25 19:34N 53°35' W 000°01'7 6.9
2016-Jul-25 18:33N 53°38' W 000°12'0 0.0
2016-Jul-25 17:33N 53°38' W 000°12'0 0.0
2016-Jul-25 16:30N 53°38' W 000°12'0 0.0
2016-Jul-25 15:33N 53°38' W 000°12'0 0.0
2016-Jul-25 14:33N 53°38' W 000°12'0 0.0
2016-Jul-25 13:33N 53°38' W 000°12'0 0.0
2016-Jul-25 12:33N 53°38' W 000°12'0 0.0
2016-Jul-25 11:09N 53°38' W 000°12'0 0.0
2016-Jul-25 10:27N 53°38' W 000°12'0 0.0
2016-Jul-25 09:12N 53°38' W 000°12'0 0.0
2016-Jul-25 08:30N 53°38' W 000°12'0 0.0
2016-Jul-25 07:33N 53°38' W 000°12'0 0.0
2016-Jul-25 06:33N 53°38' W 000°12'0 0.0
2016-Jul-25 05:30N 53°38' W 000°12'0 0.0
2016-Jul-25 04:33N 53°38' W 000°12'0 0.0
2016-Jul-25 03:33N 53°38' W 000°12'0 0.0
2016-Jul-25 02:33N 53°38' W 000°12'0 0.0
2016-Jul-25 01:33N 53°38' W 000°12'0 0.0
2016-Jul-25 00:33N 53°38' W 000°12'0 0.0
2016-Jul-24 23:33N 53°38' W 000°12'0 0.0
2016-Jul-24 22:33N 53°38' W 000°12'0 0.0
2016-Jul-24 21:33N 53°38' W 000°12'0 0.0
2016-Jul-24 20:33N 53°38' W 000°12'0 0.0
2016-Jul-24 19:33N 53°38' W 000°12'0 0.0
2016-Jul-24 18:30N 53°38' W 000°12'0 0.0
2016-Jul-24 17:33N 53°38' W 000°12'0 0.0
2016-Jul-24 16:33N 53°38' W 000°12'0 0.0
2016-Jul-24 15:33N 53°38' W 000°12'0 0.1
2016-Jul-24 14:33N 53°38' W 000°12'2 2.3
2016-Jul-24 13:33N 53°38' W 000°08'1211.6
2016-Jul-24 12:33N 53°33' E 000°10'25416.9
2016-Jul-23 21:33N 55°19' E 006°47'1716.4
2016-Jul-23 20:31N 55°21' E 007°17'1616.2
2016-Jul-23 19:33N 55°23' E 007°44'1615.8
2016-Jul-23 18:33N 55°25' E 008°12'9 8.8
2016-Jul-23 17:33N 55°28' E 008°26'0 0.0
2016-Jul-23 16:33N 55°28' E 008°26'0 0.0
2016-Jul-23 15:33N 55°28' E 008°26'0 0.0
2016-Jul-23 14:33N 55°28' E 008°26'0 0.0
2016-Jul-23 13:33N 55°28' E 008°26'0 0.2
2016-Jul-23 12:33N 55°28' E 008°27'10 9.9
2016-Jul-23 11:33N 55°24' E 008°10'1515.1
2016-Jul-23 10:33N 55°23' E 007°44'2020.1
2016-Jul-23 09:34N 55°21' E 007°09'20320.1
2016-Jul-22 23:28N 53°58' E 001°49'3819.7
2016-Jul-22 21:32N 53°47' E 000°47'1919.9
2016-Jul-22 20:33N 53°36' E 000°20'1413.6
2016-Jul-22 19:33N 53°36' W 000°03'6 5.5
2016-Jul-22 18:32N 53°38' W 000°12'0 0.0
2016-Jul-22 17:32N 53°38' W 000°12'0 0.0
2016-Jul-22 16:32N 53°38' W 000°12'0 0.0
2016-Jul-22 15:32N 53°38' W 000°12'0 0.0
2016-Jul-22 14:32N 53°38' W 000°12'0 0.0
2016-Jul-22 13:32N 53°38' W 000°12'0 0.0
2016-Jul-22 12:32N 53°38' W 000°12'0 0.0
2016-Jul-22 11:32N 53°38' W 000°12'0 0.0
2016-Jul-22 10:32N 53°38' W 000°12'0 0.0
2016-Jul-22 09:32N 53°38' W 000°12'0 0.0
2016-Jul-22 08:33N 53°38' W 000°12'0 0.0
2016-Jul-22 07:33N 53°38' W 000°12'0 0.0
2016-Jul-22 05:33N 53°38' W 000°12'0 0.0
2016-Jul-22 04:33N 53°38' W 000°12'0 0.0
2016-Jul-22 03:33N 53°38' W 000°12'0 0.0
2016-Jul-22 02:33N 53°38' W 000°12'0 0.0
2016-Jul-22 01:33N 53°38' W 000°12'0 0.0
2016-Jul-22 00:33N 53°38' W 000°12'0 0.0
2016-Jul-21 23:33N 53°38' W 000°12'0 0.0
2016-Jul-21 22:33N 53°38' W 000°12'0 0.0
2016-Jul-21 21:34N 53°38' W 000°12'0 0.0
2016-Jul-21 20:34N 53°38' W 000°12'0 0.0
2016-Jul-21 19:33N 53°38' W 000°12'0 0.0
2016-Jul-21 18:33N 53°38' W 000°12'0 0.0
2016-Jul-21 17:33N 53°38' W 000°12'0 0.0
2016-Jul-21 16:33N 53°38' W 000°12'0 0.0
2016-Jul-21 15:34N 53°38' W 000°12'0 0.0
2016-Jul-21 14:33N 53°38' W 000°12'0 0.0
2016-Jul-21 13:33N 53°38' W 000°12'2 2.2
2016-Jul-21 12:33N 53°38' W 000°08'1212.4
2016-Jul-21 11:33N 53°33' E 000°11'25018.8
2016-Jul-20 22:16N 55°18' E 006°40'1520.5
2016-Jul-20 21:33N 55°21' E 007°06'2120.9
2016-Jul-20 20:33N 55°22' E 007°42'1818.0
2016-Jul-20 19:33N 55°25' E 008°13'8 7.8
2016-Jul-20 18:33N 55°28' E 008°26'0 0.0
2016-Jul-20 17:33N 55°28' E 008°26'0 0.0
2016-Jul-20 16:30N 55°28' E 008°26'0 0.0
2016-Jul-20 15:33N 55°28' E 008°26'0 0.0
2016-Jul-20 14:33N 55°28' E 008°26'0 0.0
2016-Jul-20 13:33N 55°28' E 008°26'0 0.0
2016-Jul-20 12:33N 55°28' E 008°26'0 0.0
2016-Jul-20 11:21N 55°28' E 008°26'0 0.0
2016-Jul-20 10:30N 55°28' E 008°26'0 0.0
2016-Jul-20 09:21N 55°28' E 008°26'0 0.0
2016-Jul-20 08:27N 55°28' E 008°26'0 0.0
2016-Jul-20 07:24N 55°28' E 008°26'0 0.0
2016-Jul-20 06:33N 55°28' E 008°26'0 0.0
2016-Jul-20 05:33N 55°28' E 008°26'0 0.0
2016-Jul-20 04:33N 55°28' E 008°26'0 0.0
2016-Jul-20 03:33N 55°28' E 008°26'0 0.0
2016-Jul-20 02:30N 55°28' E 008°26'0 0.0
2016-Jul-20 01:33N 55°28' E 008°26'0 0.0
2016-Jul-20 00:21N 55°28' E 008°26'0 0.0
2016-Jul-19 23:33N 55°28' E 008°26'0 0.0
2016-Jul-19 22:33N 55°28' E 008°26'0 0.0
2016-Jul-19 20:24N 55°28' E 008°26'0 0.0
2016-Jul-19 19:09N 55°28' E 008°26'0 0.0
2016-Jul-19 18:24N 55°28' E 008°26'0 0.0
2016-Jul-19 17:33N 55°28' E 008°26'0 0.0
2016-Jul-19 16:30N 55°28' E 008°26'0 0.0
2016-Jul-19 15:33N 55°28' E 008°26'0 0.0
2016-Jul-19 14:32N 55°28' E 008°26'0 0.0
2016-Jul-19 13:33N 55°28' E 008°26'0 0.0
2016-Jul-19 12:33N 55°28' E 008°26'0 0.0
2016-Jul-19 11:33N 55°28' E 008°26'0 0.0
2016-Jul-19 10:33N 55°28' E 008°26'4 3.9
2016-Jul-19 09:31N 55°28' E 008°19'1212.7
2016-Jul-19 08:33N 55°23' E 007°59'1514.6
2016-Jul-19 07:33N 55°22' E 007°34'1514.9
2016-Jul-19 06:33N 55°21' E 007°08'  
Track history (hours):
 
Tides and Currents Weather Stations Pressure Air Temp Water Temp Dewpoint Dewpoint Depression Visibility Wind Speed Wind Dir Waves Ship Positions

Superfast Baleares

Last reported at 2016-Jul-29 04:33 UTC. Time now 2016-Jul-29 05:59 UTC.
Position N 55°28' E 008°26'.

Length 210 m; draft 6.5 m.

Type: Ship (hazmat cat A). MMSI: 225405000.

Date/timePositionNaut miles runAvg speedWind from/ knotsBaromVisibWave heightAir tempDewpointWater temp
2016-Jul-29 04:33N 55°28' E 008°26'0 0.0
2016-Jul-29 03:33N 55°28' E 008°26'0 0.0
2016-Jul-29 02:33N 55°28' E 008°26'0 0.0
2016-Jul-29 01:33N 55°28' E 008°26'0 0.0
2016-Jul-29 00:33N 55°28' E 008°26'0 0.0
2016-Jul-28 23:33N 55°28' E 008°26'0 0.0
2016-Jul-28 22:33N 55°28' E 008°26'0 0.0
2016-Jul-28 21:33N 55°28' E 008°26'0 0.0
2016-Jul-28 20:33N 55°28' E 008°26'0 0.0
2016-Jul-28 19:33N 55°28' E 008°26'0 0.0
2016-Jul-28 18:32N 55°28' E 008°26'0 0.0
2016-Jul-28 17:33N 55°28' E 008°26'0 0.0
2016-Jul-28 16:33N 55°28' E 008°26'0 0.0
2016-Jul-28 15:33N 55°28' E 008°26'0 0.0
2016-Jul-28 14:33N 55°28' E 008°26'0 0.0
2016-Jul-28 13:33N 55°28' E 008°26'1 1.2
2016-Jul-28 12:33N 55°28' E 008°25'1211.7
2016-Jul-28 11:33N 55°24' E 008°05'29520.9
2016-Jul-27 21:28N 53°33' E 000°16'1314.6
2016-Jul-27 20:33N 53°37' W 000°06'4 3.8
2016-Jul-27 19:33N 53°38' W 000°12'0 0.0
2016-Jul-27 18:33N 53°38' W 000°12'0 0.0
2016-Jul-27 17:33N 53°38' W 000°12'0 0.0
2016-Jul-27 16:33N 53°38' W 000°12'0 0.0
2016-Jul-27 15:33N 53°38' W 000°12'0 0.0
2016-Jul-27 14:33N 53°38' W 000°12'0 0.0
2016-Jul-27 13:33N 53°38' W 000°12'1 1.0
2016-Jul-27 12:33N 53°38' W 000°10'1312.7
2016-Jul-27 11:33N 53°33' E 000°09'25818.4
2016-Jul-26 21:34N 55°20' E 006°53'2320.6
2016-Jul-26 20:27N 55°22' E 007°33'1920.7
2016-Jul-26 19:33N 55°24' E 008°05'1212.3
2016-Jul-26 18:33N 55°27' E 008°26'0 0.2
2016-Jul-26 17:32N 55°28' E 008°26'0 0.0
2016-Jul-26 16:33N 55°28' E 008°26'0 0.0
2016-Jul-26 15:33N 55°28' E 008°26'0 0.0
2016-Jul-26 14:33N 55°28' E 008°26'0 0.0
2016-Jul-26 13:33N 55°28' E 008°26'1 0.6
2016-Jul-26 12:33N 55°28' E 008°25'1211.7
2016-Jul-26 11:34N 55°24' E 008°06'1616.2
2016-Jul-26 10:34N 55°23' E 007°37'1615.9
2016-Jul-26 09:34N 55°21' E 007°10'26220.1
2016-Jul-25 20:32N 53°35' E 000°18'1211.8
2016-Jul-25 19:34N 53°35' W 000°01'7 6.9
2016-Jul-25 18:33N 53°38' W 000°12'0 0.0
2016-Jul-25 17:33N 53°38' W 000°12'0 0.0
2016-Jul-25 16:30N 53°38' W 000°12'0 0.0
2016-Jul-25 15:33N 53°38' W 000°12'0 0.0
2016-Jul-25 14:33N 53°38' W 000°12'0 0.0
2016-Jul-25 13:33N 53°38' W 000°12'0 0.0
2016-Jul-25 12:33N 53°38' W 000°12'0 0.0
2016-Jul-25 11:09N 53°38' W 000°12'0 0.0
2016-Jul-25 10:27N 53°38' W 000°12'0 0.0
2016-Jul-25 09:12N 53°38' W 000°12'0 0.0
2016-Jul-25 08:30N 53°38' W 000°12'0 0.0
2016-Jul-25 07:33N 53°38' W 000°12'0 0.0
2016-Jul-25 06:33N 53°38' W 000°12'0 0.0
2016-Jul-25 05:30N 53°38' W 000°12'0 0.0
2016-Jul-25 04:33N 53°38' W 000°12'0 0.0
2016-Jul-25 03:33N 53°38' W 000°12'0 0.0
2016-Jul-25 02:33N 53°38' W 000°12'0 0.0
2016-Jul-25 01:33N 53°38' W 000°12'0 0.0
2016-Jul-25 00:33N 53°38' W 000°12'0 0.0
2016-Jul-24 23:33N 53°38' W 000°12'0 0.0
2016-Jul-24 22:33N 53°38' W 000°12'0 0.0
2016-Jul-24 21:33N 53°38' W 000°12'0 0.0
2016-Jul-24 20:33N 53°38' W 000°12'0 0.0
2016-Jul-24 19:33N 53°38' W 000°12'0 0.0
2016-Jul-24 18:30N 53°38' W 000°12'0 0.0
2016-Jul-24 17:33N 53°38' W 000°12'0 0.0
2016-Jul-24 16:33N 53°38' W 000°12'0 0.0
2016-Jul-24 15:33N 53°38' W 000°12'0 0.1
2016-Jul-24 14:33N 53°38' W 000°12'2 2.3
2016-Jul-24 13:33N 53°38' W 000°08'1211.6
2016-Jul-24 12:33N 53°33' E 000°10'25416.9
2016-Jul-23 21:33N 55°19' E 006°47'1716.4
2016-Jul-23 20:31N 55°21' E 007°17'1616.2
2016-Jul-23 19:33N 55°23' E 007°44'1615.8
2016-Jul-23 18:33N 55°25' E 008°12'9 8.8
2016-Jul-23 17:33N 55°28' E 008°26'0 0.0
2016-Jul-23 16:33N 55°28' E 008°26'0 0.0
2016-Jul-23 15:33N 55°28' E 008°26'0 0.0
2016-Jul-23 14:33N 55°28' E 008°26'0 0.0
2016-Jul-23 13:33N 55°28' E 008°26'0 0.2
2016-Jul-23 12:33N 55°28' E 008°27'10 9.9
2016-Jul-23 11:33N 55°24' E 008°10'1515.1
2016-Jul-23 10:33N 55°23' E 007°44'2020.1
2016-Jul-23 09:34N 55°21' E 007°09'20320.1
2016-Jul-22 23:28N 53°58' E 001°49'3819.7
2016-Jul-22 21:32N 53°47' E 000°47'1919.9
2016-Jul-22 20:33N 53°36' E 000°20'1413.6
2016-Jul-22 19:33N 53°36' W 000°03'6 5.5
2016-Jul-22 18:32N 53°38' W 000°12'0 0.0
2016-Jul-22 17:32N 53°38' W 000°12'0 0.0
2016-Jul-22 16:32N 53°38' W 000°12'0 0.0
2016-Jul-22 15:32N 53°38' W 000°12'0 0.0
2016-Jul-22 14:32N 53°38' W 000°12'0 0.0
2016-Jul-22 13:32N 53°38' W 000°12'0 0.0
2016-Jul-22 12:32N 53°38' W 000°12'0 0.0
2016-Jul-22 11:32N 53°38' W 000°12'0 0.0
2016-Jul-22 10:32N 53°38' W 000°12'0 0.0
2016-Jul-22 09:32N 53°38' W 000°12'0 0.0
2016-Jul-22 08:33N 53°38' W 000°12'0 0.0
2016-Jul-22 07:33N 53°38' W 000°12'0 0.0
2016-Jul-22 05:33N 53°38' W 000°12'0 0.0
2016-Jul-22 04:33N 53°38' W 000°12'0 0.0
2016-Jul-22 03:33N 53°38' W 000°12'0 0.0
2016-Jul-22 02:33N 53°38' W 000°12'0 0.0
2016-Jul-22 01:33N 53°38' W 000°12'0 0.0
2016-Jul-22 00:33N 53°38' W 000°12'0 0.0
2016-Jul-21 23:33N 53°38' W 000°12'0 0.0
2016-Jul-21 22:33N 53°38' W 000°12'0 0.0
2016-Jul-21 21:34N 53°38' W 000°12'0 0.0
2016-Jul-21 20:34N 53°38' W 000°12'0 0.0
2016-Jul-21 19:33N 53°38' W 000°12'0 0.0
2016-Jul-21 18:33N 53°38' W 000°12'0 0.0
2016-Jul-21 17:33N 53°38' W 000°12'0 0.0
2016-Jul-21 16:33N 53°38' W 000°12'0 0.0
2016-Jul-21 15:34N 53°38' W 000°12'0 0.0
2016-Jul-21 14:33N 53°38' W 000°12'0 0.0
2016-Jul-21 13:33N 53°38' W 000°12'2 2.2
2016-Jul-21 12:33N 53°38' W 000°08'1212.4
2016-Jul-21 11:33N 53°33' E 000°11'25018.8
2016-Jul-20 22:16N 55°18' E 006°40'1520.5
2016-Jul-20 21:33N 55°21' E 007°06'2120.9
2016-Jul-20 20:33N 55°22' E 007°42'1818.0
2016-Jul-20 19:33N 55°25' E 008°13'8 7.8
2016-Jul-20 18:33N 55°28' E 008°26'0 0.0
2016-Jul-20 17:33N 55°28' E 008°26'0 0.0
2016-Jul-20 16:30N 55°28' E 008°26'0 0.0
2016-Jul-20 15:33N 55°28' E 008°26'0 0.0
2016-Jul-20 14:33N 55°28' E 008°26'0 0.0
2016-Jul-20 13:33N 55°28' E 008°26'0 0.0
2016-Jul-20 12:33N 55°28' E 008°26'0 0.0
2016-Jul-20 11:21N 55°28' E 008°26'0 0.0
2016-Jul-20 10:30N 55°28' E 008°26'0 0.0
2016-Jul-20 09:21N 55°28' E 008°26'0 0.0
2016-Jul-20 08:27N 55°28' E 008°26'0 0.0
2016-Jul-20 07:24N 55°28' E 008°26'0 0.0
2016-Jul-20 06:33N 55°28' E 008°26'0 0.0
2016-Jul-20 05:33N 55°28' E 008°26'0 0.0
2016-Jul-20 04:33N 55°28' E 008°26'0 0.0
2016-Jul-20 03:33N 55°28' E 008°26'0 0.0
2016-Jul-20 02:30N 55°28' E 008°26'0 0.0
2016-Jul-20 01:33N 55°28' E 008°26'0 0.0
2016-Jul-20 00:21N 55°28' E 008°26'0 0.0
2016-Jul-19 23:33N 55°28' E 008°26'0 0.0
2016-Jul-19 22:33N 55°28' E 008°26'0 0.0
2016-Jul-19 20:24N 55°28' E 008°26'0 0.0
2016-Jul-19 19:09N 55°28' E 008°26'0 0.0
2016-Jul-19 18:24N 55°28' E 008°26'0 0.0
2016-Jul-19 17:33N 55°28' E 008°26'0 0.0
2016-Jul-19 16:30N 55°28' E 008°26'0 0.0
2016-Jul-19 15:33N 55°28' E 008°26'0 0.0
2016-Jul-19 14:32N 55°28' E 008°26'0 0.0
2016-Jul-19 13:33N 55°28' E 008°26'0 0.0
2016-Jul-19 12:33N 55°28' E 008°26'0 0.0
2016-Jul-19 11:33N 55°28' E 008°26'0 0.0
2016-Jul-19 10:33N 55°28' E 008°26'4 3.9
2016-Jul-19 09:31N 55°28' E 008°19'1212.7
2016-Jul-19 08:33N 55°23' E 007°59'1514.6
2016-Jul-19 07:33N 55°22' E 007°34'1514.9
2016-Jul-19 06:33N 55°21' E 007°08'  

Dump ship's entire track history